createdAt,value
2016-09-08T00:00:50.273Z,1008.01
2016-09-08T00:01:50.281Z,1008.03
2016-09-08T00:02:50.291Z,1008
2016-09-08T00:03:50.297Z,1008.01
2016-09-08T00:04:50.303Z,1007.98
2016-09-08T00:05:51.212Z,1008.01
2016-09-08T00:06:50.319Z,1007.98
2016-09-08T00:07:50.326Z,1008
2016-09-08T00:08:50.336Z,1007.97
2016-09-08T00:09:50.340Z,1007.95
2016-09-08T00:10:50.348Z,1007.95
2016-09-08T00:11:50.354Z,1007.93
2016-09-08T00:12:50.370Z,1007.95
2016-09-08T00:13:50.371Z,1007.87
2016-09-08T00:14:50.377Z,1007.87
2016-09-08T00:15:50.385Z,1007.84
2016-09-08T00:16:50.392Z,1007.83
2016-09-08T00:17:50.400Z,1007.81
2016-09-08T00:18:50.407Z,1007.79
2016-09-08T00:19:50.415Z,1007.77
2016-09-08T00:20:51.273Z,1007.81
2016-09-08T00:21:50.430Z,1007.73
2016-09-08T00:22:50.435Z,1007.71
2016-09-08T00:23:50.444Z,1007.7
2016-09-08T00:24:50.452Z,1007.69
2016-09-08T00:25:50.459Z,1007.64
2016-09-08T00:26:50.466Z,1007.69
2016-09-08T00:27:50.481Z,1007.64
2016-09-08T00:28:50.482Z,1007.66
2016-09-08T00:29:50.488Z,1007.66
2016-09-08T00:30:50.499Z,1007.6
2016-09-08T00:31:50.504Z,1007.63
2016-09-08T00:32:50.511Z,1007.57
2016-09-08T00:33:50.518Z,1007.51
2016-09-08T00:34:50.526Z,1007.51
2016-09-08T00:35:50.536Z,1007.43
2016-09-08T00:36:50.542Z,1007.41
2016-09-08T00:37:50.548Z,1007.35
2016-09-08T00:38:50.556Z,1007.34
2016-09-08T00:39:50.565Z,1007.32
2016-09-08T00:40:50.575Z,1007.28
2016-09-08T00:41:50.579Z,1007.24
2016-09-08T00:42:50.851Z,1007.25
2016-09-08T00:43:50.593Z,1007.18
2016-09-08T00:44:50.601Z,1007.14
2016-09-08T00:45:50.608Z,1007.09
2016-09-08T00:46:50.617Z,1007.05
2016-09-08T00:47:50.624Z,1006.97
2016-09-08T00:48:50.631Z,1006.97
2016-09-08T00:49:50.639Z,1006.93
2016-09-08T00:50:50.648Z,1006.86
2016-09-08T00:51:51.754Z,1006.84
2016-09-08T00:52:50.661Z,1006.78
2016-09-08T00:53:50.667Z,1006.74
2016-09-08T00:54:50.682Z,1006.69
2016-09-08T00:55:50.684Z,1006.7
2016-09-08T00:56:50.690Z,1006.69
2016-09-08T00:57:50.698Z,1006.74
2016-09-08T00:58:50.706Z,1006.78
2016-09-08T00:59:50.713Z,1006.72
2016-09-08T01:00:50.721Z,1006.75
2016-09-08T01:01:50.728Z,1006.74
2016-09-08T01:02:50.733Z,1006.71
2016-09-08T01:03:50.744Z,1006.71
2016-09-08T01:04:50.750Z,1006.68
2016-09-08T01:05:50.759Z,1006.62
2016-09-08T01:06:51.814Z,1006.63
2016-09-08T01:07:50.773Z,1006.55
2016-09-08T01:08:50.781Z,1006.59
2016-09-08T01:09:50.788Z,1006.63
2016-09-08T01:10:50.794Z,1006.62
2016-09-08T01:11:50.803Z,1006.62
2016-09-08T01:12:50.860Z,1006.66
2016-09-08T01:13:50.816Z,1006.66
2016-09-08T01:14:50.826Z,1006.71
2016-09-08T01:15:50.832Z,1006.71
2016-09-08T01:16:50.840Z,1006.68
2016-09-08T01:17:50.845Z,1006.69
2016-09-08T01:18:50.854Z,1006.7
2016-09-08T01:19:50.861Z,1006.72
2016-09-08T01:20:50.869Z,1006.69
2016-09-08T01:21:50.875Z,1006.63
2016-09-08T01:22:50.883Z,1006.63
2016-09-08T01:23:50.891Z,1006.6
2016-09-08T01:24:50.897Z,1006.59
2016-09-08T01:25:50.905Z,1006.56
2016-09-08T01:26:50.912Z,1006.53
2016-09-08T01:27:50.921Z,1006.54
2016-09-08T01:28:51.626Z,1006.53
2016-09-08T01:29:50.933Z,1006.51
2016-09-08T01:30:50.943Z,1006.43
2016-09-08T01:31:50.949Z,1006.43
2016-09-08T01:32:50.957Z,1006.4
2016-09-08T01:33:50.964Z,1006.44
2016-09-08T01:34:51.023Z,1006.44
2016-09-08T01:35:50.978Z,1006.42
2016-09-08T01:36:50.986Z,1006.46
2016-09-08T01:37:50.994Z,1006.46
2016-09-08T01:38:51.001Z,1006.45
2016-09-08T01:39:51.010Z,1006.48
2016-09-08T01:40:51.016Z,1006.46
2016-09-08T01:41:51.024Z,1006.5
2016-09-08T01:42:51.030Z,1006.5
2016-09-08T01:43:51.039Z,1006.53
2016-09-08T01:44:51.047Z,1006.55
2016-09-08T01:45:51.054Z,1006.51
2016-09-08T01:46:51.062Z,1006.56
2016-09-08T01:47:51.069Z,1006.55
2016-09-08T01:48:51.128Z,1006.58
2016-09-08T01:49:51.084Z,1006.57
2016-09-08T01:50:51.441Z,1006.6
2016-09-08T01:51:51.099Z,1006.57
2016-09-08T01:52:51.108Z,1006.55
2016-09-08T01:53:51.114Z,1006.55
2016-09-08T01:54:51.122Z,1006.54
2016-09-08T01:55:51.129Z,1006.53
2016-09-08T01:56:51.137Z,1006.54
2016-09-08T01:57:51.143Z,1006.52
2016-09-08T01:58:51.151Z,1006.52
2016-09-08T01:59:51.161Z,1006.49
2016-09-08T02:00:51.166Z,1006.49
2016-09-08T02:01:51.173Z,1006.53
2016-09-08T02:02:51.185Z,1006.54
2016-09-08T02:03:51.188Z,1006.52
2016-09-08T02:04:51.197Z,1006.54
2016-09-08T02:05:51.203Z,1006.49
2016-09-08T02:06:51.210Z,1006.52
2016-09-08T02:07:51.218Z,1006.49
2016-09-08T02:08:51.225Z,1006.48
2016-09-08T02:09:51.231Z,1006.48
2016-09-08T02:10:51.241Z,1006.49
2016-09-08T02:11:51.247Z,1006.48
2016-09-08T02:12:51.255Z,1006.55
2016-09-08T02:13:51.261Z,1006.52
2016-09-08T02:14:52.219Z,1006.56
2016-09-08T02:15:51.325Z,1006.56
2016-09-08T02:16:51.284Z,1006.54
2016-09-08T02:17:51.291Z,1006.54
2016-09-08T02:18:51.298Z,1006.5
2016-09-08T02:19:51.305Z,1006.52
2016-09-08T02:20:51.312Z,1006.51
2016-09-08T02:21:51.320Z,1006.53
2016-09-08T02:22:51.327Z,1006.51
2016-09-08T02:23:51.334Z,1006.5
2016-09-08T02:24:51.342Z,1006.5
2016-09-08T02:25:51.351Z,1006.48
2016-09-08T02:26:51.356Z,1006.52
2016-09-08T02:27:51.363Z,1006.52
2016-09-08T02:28:51.371Z,1006.51
2016-09-08T02:29:51.378Z,1006.54
2016-09-08T02:30:51.386Z,1006.51
2016-09-08T02:31:51.393Z,1006.54
2016-09-08T02:32:51.398Z,1006.52
2016-09-08T02:33:51.408Z,1006.51
2016-09-08T02:34:51.413Z,1006.51
2016-09-08T02:35:51.421Z,1006.47
2016-09-08T02:36:52.178Z,1006.44
2016-09-08T02:37:51.436Z,1006.45
2016-09-08T02:38:51.444Z,1006.4
2016-09-08T02:39:51.452Z,1006.37
2016-09-08T02:40:51.459Z,1006.38
2016-09-08T02:41:51.465Z,1006.41
2016-09-08T02:42:51.574Z,1006.42
2016-09-08T02:43:51.481Z,1006.41
2016-09-08T02:44:51.490Z,1006.39
2016-09-08T02:45:51.495Z,1006.38
2016-09-08T02:46:51.504Z,1006.4
2016-09-08T02:47:51.511Z,1006.38
2016-09-08T02:48:51.517Z,1006.38
2016-09-08T02:49:51.526Z,1006.36
2016-09-08T02:50:51.534Z,1006.36
2016-09-08T02:51:51.540Z,1006.35
2016-09-08T02:52:51.547Z,1006.34
2016-09-08T02:53:51.555Z,1006.35
2016-09-08T02:54:51.564Z,1006.38
2016-09-08T02:55:51.570Z,1006.36
2016-09-08T02:56:51.578Z,1006.36
2016-09-08T02:57:51.585Z,1006.4
2016-09-08T02:58:51.993Z,1006.39
2016-09-08T02:59:51.599Z,1006.39
2016-09-08T03:00:51.608Z,1006.39
2016-09-08T03:01:51.614Z,1006.39
2016-09-08T03:02:51.623Z,1006.39
2016-09-08T03:03:51.630Z,1006.43
2016-09-08T03:04:51.637Z,1006.42
2016-09-08T03:05:51.646Z,1006.42
2016-09-08T03:06:51.652Z,1006.43
2016-09-08T03:07:51.659Z,1006.44
2016-09-08T03:08:51.667Z,1006.42
2016-09-08T03:09:51.674Z,1006.41
2016-09-08T03:10:51.681Z,1006.4
2016-09-08T03:11:51.690Z,1006.37
2016-09-08T03:12:51.697Z,1006.35
2016-09-08T03:13:51.705Z,1006.36
2016-09-08T03:14:51.714Z,1006.33
2016-09-08T03:15:51.720Z,1006.28
2016-09-08T03:16:51.727Z,1006.27
2016-09-08T03:17:51.732Z,1006.27
2016-09-08T03:18:51.739Z,1006.23
2016-09-08T03:19:51.749Z,1006.26
2016-09-08T03:20:52.159Z,1006.23
2016-09-08T03:21:51.763Z,1006.21
2016-09-08T03:22:51.772Z,1006.26
2016-09-08T03:23:51.778Z,1006.22
2016-09-08T03:24:51.788Z,1006.23
2016-09-08T03:25:51.792Z,1006.26
2016-09-08T03:26:51.800Z,1006.26
2016-09-08T03:27:51.808Z,1006.26
2016-09-08T03:28:51.816Z,1006.26
2016-09-08T03:29:51.823Z,1006.26
2016-09-08T03:30:51.830Z,1006.26
2016-09-08T03:31:51.838Z,1006.24
2016-09-08T03:32:51.843Z,1006.21
2016-09-08T03:33:51.851Z,1006.23
2016-09-08T03:34:51.859Z,1006.25
2016-09-08T03:35:51.869Z,1006.24
2016-09-08T03:36:51.876Z,1006.24
2016-09-08T03:37:51.883Z,1006.22
2016-09-08T03:38:51.891Z,1006.18
2016-09-08T03:39:52.597Z,1006.15
2016-09-08T03:40:51.904Z,1006.21
2016-09-08T03:41:51.912Z,1006.15
2016-09-08T03:42:51.920Z,1006.17
2016-09-08T03:43:51.926Z,1006.18
2016-09-08T03:44:52.885Z,1006.17
2016-09-08T03:45:51.941Z,1006.16
2016-09-08T03:46:51.951Z,1006.19
2016-09-08T03:47:51.957Z,1006.19
2016-09-08T03:48:51.964Z,1006.14
2016-09-08T03:49:51.971Z,1006.18
2016-09-08T03:50:51.978Z,1006.19
2016-09-08T03:51:51.986Z,1006.12
2016-09-08T03:52:51.991Z,1006.13
2016-09-08T03:53:52.002Z,1006.09
2016-09-08T03:54:52.009Z,1006.12
2016-09-08T03:55:52.015Z,1006.04
2016-09-08T03:56:52.024Z,1006.02
2016-09-08T03:57:52.032Z,1006.01
2016-09-08T03:58:52.039Z,1005.98
2016-09-08T03:59:52.047Z,1005.97
2016-09-08T04:00:52.056Z,1005.95
2016-09-08T04:01:52.061Z,1005.95
2016-09-08T04:02:52.069Z,1005.99
2016-09-08T04:03:52.076Z,1005.93
2016-09-08T04:04:52.083Z,1005.93
2016-09-08T04:05:52.091Z,1005.96
2016-09-08T04:06:53.000Z,1005.94
2016-09-08T04:07:52.105Z,1005.93
2016-09-08T04:08:52.114Z,1005.93
2016-09-08T04:09:52.119Z,1005.93
2016-09-08T04:10:52.128Z,1005.93
2016-09-08T04:11:52.137Z,1005.92
2016-09-08T04:12:52.143Z,1005.91
2016-09-08T04:13:52.150Z,1005.91
2016-09-08T04:14:52.159Z,1005.92
2016-09-08T04:15:52.167Z,1005.91
2016-09-08T04:16:52.171Z,1005.88
2016-09-08T04:17:52.180Z,1005.87
2016-09-08T04:18:52.189Z,1005.85
2016-09-08T04:19:52.195Z,1005.81
2016-09-08T04:20:52.202Z,1005.86
2016-09-08T04:21:53.012Z,1005.81
2016-09-08T04:22:52.567Z,1005.86
2016-09-08T04:23:52.224Z,1005.8
2016-09-08T04:24:52.231Z,1005.85
2016-09-08T04:25:52.238Z,1005.84
2016-09-08T04:26:52.246Z,1005.84
2016-09-08T04:27:52.254Z,1005.82
2016-09-08T04:28:52.261Z,1005.8
2016-09-08T04:29:52.268Z,1005.84
2016-09-08T04:30:52.277Z,1005.79
2016-09-08T04:31:52.283Z,1005.83
2016-09-08T04:32:52.290Z,1005.8
2016-09-08T04:33:52.297Z,1005.82
2016-09-08T04:34:52.305Z,1005.79
2016-09-08T04:35:52.311Z,1005.79
2016-09-08T04:36:52.318Z,1005.78
2016-09-08T04:37:52.326Z,1005.8
2016-09-08T04:38:52.334Z,1005.76
2016-09-08T04:39:52.341Z,1005.75
2016-09-08T04:40:52.350Z,1005.76
2016-09-08T04:41:52.356Z,1005.77
2016-09-08T04:42:52.363Z,1005.75
2016-09-08T04:43:52.722Z,1005.77
2016-09-08T04:44:52.378Z,1005.77
2016-09-08T04:45:52.385Z,1005.75
2016-09-08T04:46:52.392Z,1005.74
2016-09-08T04:47:52.401Z,1005.74
2016-09-08T04:48:52.408Z,1005.73
2016-09-08T04:49:52.414Z,1005.73
2016-09-08T04:50:52.423Z,1005.68
2016-09-08T04:51:52.430Z,1005.71
2016-09-08T04:52:52.437Z,1005.72
2016-09-08T04:53:52.444Z,1005.73
2016-09-08T04:54:52.453Z,1005.73
2016-09-08T04:55:52.459Z,1005.73
2016-09-08T04:56:52.466Z,1005.75
2016-09-08T04:57:52.473Z,1005.73
2016-09-08T04:58:52.482Z,1005.71
2016-09-08T04:59:52.489Z,1005.71
2016-09-08T05:00:52.498Z,1005.71
2016-09-08T05:01:52.507Z,1005.71
2016-09-08T05:02:52.512Z,1005.69
2016-09-08T05:03:52.518Z,1005.71
2016-09-08T05:04:52.526Z,1005.71
2016-09-08T05:05:52.534Z,1005.73
2016-09-08T05:06:52.541Z,1005.73
2016-09-08T05:07:52.548Z,1005.73
2016-09-08T05:08:52.556Z,1005.77
2016-09-08T05:09:52.563Z,1005.73
2016-09-08T05:10:52.573Z,1005.74
2016-09-08T05:11:52.580Z,1005.71
2016-09-08T05:12:52.599Z,1005.69
2016-09-08T05:13:52.595Z,1005.69
2016-09-08T05:14:52.601Z,1005.66
2016-09-08T05:15:52.608Z,1005.67
2016-09-08T05:16:52.617Z,1005.67
2016-09-08T05:17:52.623Z,1005.7
2016-09-08T05:18:52.681Z,1005.67
2016-09-08T05:19:52.637Z,1005.65
2016-09-08T05:20:52.647Z,1005.65
2016-09-08T05:21:52.655Z,1005.63
2016-09-08T05:22:52.661Z,1005.58
2016-09-08T05:23:52.669Z,1005.6
2016-09-08T05:24:52.676Z,1005.57
2016-09-08T05:25:52.684Z,1005.54
2016-09-08T05:26:52.690Z,1005.51
2016-09-08T05:27:53.154Z,1005.51
2016-09-08T05:28:52.706Z,1005.5
2016-09-08T05:29:53.564Z,1005.51
2016-09-08T05:30:52.722Z,1005.5
2016-09-08T05:31:52.730Z,1005.52
2016-09-08T05:32:52.736Z,1005.62
2016-09-08T05:33:52.743Z,1005.61
2016-09-08T05:34:52.750Z,1005.62
2016-09-08T05:35:52.758Z,1005.57
2016-09-08T05:36:52.766Z,1005.59
2016-09-08T05:37:52.773Z,1005.54
2016-09-08T05:38:52.779Z,1005.58
2016-09-08T05:39:53.388Z,1005.54
2016-09-08T05:40:52.794Z,1005.52
2016-09-08T05:41:52.803Z,1005.54
2016-09-08T05:42:52.810Z,1005.54
2016-09-08T05:43:52.817Z,1005.48
2016-09-08T05:44:52.823Z,1005.5
2016-09-08T05:45:52.831Z,1005.52
2016-09-08T05:46:52.839Z,1005.49
2016-09-08T05:47:52.846Z,1005.52
2016-09-08T05:48:52.902Z,1005.49
2016-09-08T05:49:52.863Z,1005.51
2016-09-08T05:50:52.868Z,1005.5
2016-09-08T05:51:53.174Z,1005.51
2016-09-08T05:52:52.883Z,1005.57
2016-09-08T05:53:52.889Z,1005.53
2016-09-08T05:54:52.898Z,1005.55
2016-09-08T05:55:52.905Z,1005.5
2016-09-08T05:56:52.912Z,1005.47
2016-09-08T05:57:52.920Z,1005.47
2016-09-08T05:58:52.927Z,1005.49
2016-09-08T05:59:52.934Z,1005.55
2016-09-08T06:00:52.943Z,1005.47
2016-09-08T06:01:52.950Z,1005.5
2016-09-08T06:02:52.957Z,1005.49
2016-09-08T06:03:52.973Z,1005.49
2016-09-08T06:04:52.976Z,1005.48
2016-09-08T06:05:52.983Z,1005.44
2016-09-08T06:06:52.986Z,1005.45
2016-09-08T06:07:52.997Z,1005.46
2016-09-08T06:08:53.004Z,1005.41
2016-09-08T06:09:53.009Z,1005.43
2016-09-08T06:10:53.019Z,1005.43
2016-09-08T06:11:53.026Z,1005.48
2016-09-08T06:12:53.033Z,1005.48
2016-09-08T06:13:53.041Z,1005.42
2016-09-08T06:14:53.049Z,1005.49
2016-09-08T06:15:54.206Z,1005.54
2016-09-08T06:16:53.064Z,1005.5
2016-09-08T06:17:53.073Z,1005.46
2016-09-08T06:18:53.079Z,1005.43
2016-09-08T06:19:53.085Z,1005.54
2016-09-08T06:20:53.099Z,1005.5
2016-09-08T06:21:53.100Z,1005.45
2016-09-08T06:22:53.109Z,1005.58
2016-09-08T06:23:53.167Z,1005.43
2016-09-08T06:24:53.123Z,1005.43
2016-09-08T06:25:53.131Z,1005.41
2016-09-08T06:26:53.138Z,1005.42
2016-09-08T06:27:53.146Z,1005.4
2016-09-08T06:28:53.153Z,1005.35
2016-09-08T06:29:53.161Z,1005.35
2016-09-08T06:30:53.169Z,1005.35
2016-09-08T06:31:53.174Z,1005.46
2016-09-08T06:32:53.183Z,1005.6
2016-09-08T06:33:53.188Z,1005.46
2016-09-08T06:34:53.198Z,1005.38
2016-09-08T06:35:53.204Z,1005.38
2016-09-08T06:36:53.213Z,1005.57
2016-09-08T06:37:53.671Z,1005.45
2016-09-08T06:38:53.227Z,1005.98
2016-09-08T06:39:53.234Z,1006.2
2016-09-08T06:40:53.244Z,1006.25
2016-09-08T06:41:53.252Z,1006.22
2016-09-08T06:42:53.260Z,1006.25
2016-09-08T06:43:53.270Z,1006.26
2016-09-08T06:44:53.276Z,1006.03
2016-09-08T06:45:53.284Z,1005.63
2016-09-08T06:46:53.294Z,1005.33
2016-09-08T06:47:53.303Z,1005.33
2016-09-08T06:48:53.313Z,1005.37
2016-09-08T06:49:53.321Z,1005.32
2016-09-08T06:50:53.330Z,1005.29
2016-09-08T06:51:53.338Z,1005.3
2016-09-08T06:52:53.348Z,1005.3
2016-09-08T06:53:53.354Z,1005.29
2016-09-08T06:54:53.363Z,1005.28
2016-09-08T06:55:53.372Z,1005.29
2016-09-08T06:56:53.379Z,1005.24
2016-09-08T06:57:53.388Z,1005.23
2016-09-08T06:58:53.395Z,1005.27
2016-09-08T06:59:53.405Z,1005.24
2016-09-08T07:00:53.412Z,1005.24
2016-09-08T07:01:53.511Z,1005.29
2016-09-08T07:02:53.429Z,1005.23
2016-09-08T07:03:53.438Z,1005.23
2016-09-08T07:04:53.522Z,1005.21
2016-09-08T07:05:53.504Z,1005.27
2016-09-08T07:06:53.463Z,1005.25
2016-09-08T07:07:53.471Z,1005.28
2016-09-08T07:08:54.146Z,1005.27
2016-09-08T07:09:53.583Z,1005.21
2016-09-08T07:10:53.494Z,1005.25
2016-09-08T07:11:53.502Z,1005.24
2016-09-08T07:12:53.510Z,1005.23
2016-09-08T07:13:53.602Z,1005.29
2016-09-08T07:14:53.527Z,1005.29
2016-09-08T07:15:53.535Z,1005.24
2016-09-08T07:16:53.543Z,1005.19
2016-09-08T07:17:53.552Z,1005.19
2016-09-08T07:18:53.611Z,1005.13
2016-09-08T07:19:53.567Z,1005.16
2016-09-08T07:20:53.575Z,1005.16
2016-09-08T07:21:53.584Z,1005.17
2016-09-08T07:22:53.588Z,1005.19
2016-09-08T07:23:53.599Z,1005.14
2016-09-08T07:24:53.606Z,1005.13
2016-09-08T07:25:53.615Z,1005.18
2016-09-08T07:26:53.621Z,1005.14
2016-09-08T07:27:53.629Z,1005.12
2016-09-08T07:28:53.638Z,1005.13
2016-09-08T07:29:53.723Z,1005.11
2016-09-08T07:30:53.653Z,1005.12
2016-09-08T07:31:53.752Z,1005.14
2016-09-08T07:32:53.719Z,1005.12
2016-09-08T07:33:53.674Z,1005.07
2016-09-08T07:34:53.683Z,1005.09
2016-09-08T07:35:53.691Z,1005.06
2016-09-08T07:36:53.700Z,1005.11
2016-09-08T07:37:53.706Z,1005.09
2016-09-08T07:38:53.759Z,1005.09
2016-09-08T07:39:53.721Z,1005.13
2016-09-08T07:40:53.729Z,1005.15
2016-09-08T07:41:53.757Z,1005.13
2016-09-08T07:42:54.259Z,1005.14
2016-09-08T07:43:53.753Z,1005.21
2016-09-08T07:44:53.760Z,1005.13
2016-09-08T07:45:53.852Z,1005.17
2016-09-08T07:46:53.774Z,1005.18
2016-09-08T07:47:53.894Z,1005.15
2016-09-08T07:48:53.789Z,1005.17
2016-09-08T07:49:53.796Z,1005.17
2016-09-08T07:50:53.807Z,1005.14
2016-09-08T07:51:53.813Z,1005.13
2016-09-08T07:52:53.823Z,1005.15
2016-09-08T07:53:53.829Z,1005.09
2016-09-08T07:54:53.861Z,1005.13
2016-09-08T07:55:53.843Z,1005.08
2016-09-08T07:56:53.905Z,1005.08
2016-09-08T07:57:53.860Z,1005.06
2016-09-08T07:58:53.939Z,1005.04
2016-09-08T07:59:53.925Z,1005.07
2016-09-08T08:00:53.881Z,1005.01
2016-09-08T08:01:53.890Z,1005.09
2016-09-08T08:02:53.897Z,1005
2016-09-08T08:03:53.904Z,1005.04
2016-09-08T08:04:53.965Z,1005.07
2016-09-08T08:05:53.965Z,1005.09
2016-09-08T08:06:53.927Z,1005.02
2016-09-08T08:07:53.936Z,1005
2016-09-08T08:08:54.030Z,1005
2016-09-08T08:09:53.951Z,1005.01
2016-09-08T08:10:54.019Z,1004.99
2016-09-08T08:11:53.966Z,1005.01
2016-09-08T08:12:54.057Z,1004.98
2016-09-08T08:13:53.982Z,1004.99
2016-09-08T08:14:53.989Z,1004.98
2016-09-08T08:15:54.047Z,1004.97
2016-09-08T08:16:54.006Z,1004.98
2016-09-08T08:17:54.035Z,1004.98
2016-09-08T08:18:54.018Z,1004.98
2016-09-08T08:19:54.029Z,1004.96
2016-09-08T08:20:54.038Z,1004.96
2016-09-08T08:21:54.043Z,1005.01
2016-09-08T08:22:54.101Z,1004.98
2016-09-08T08:23:54.072Z,1005.04
2016-09-08T08:24:54.165Z,1005.5
2016-09-08T08:25:54.074Z,1005.89
2016-09-08T08:26:55.133Z,1005.9
2016-09-08T08:27:54.090Z,1005.96
2016-09-08T08:28:54.104Z,1005.93
2016-09-08T08:29:54.110Z,1005.97
2016-09-08T08:30:54.118Z,1005.94
2016-09-08T08:31:54.149Z,1005.98
2016-09-08T08:32:54.134Z,1005.9
2016-09-08T08:33:54.230Z,1005.91
2016-09-08T08:34:54.245Z,1005.89
2016-09-08T08:35:54.217Z,1005.89
2016-09-08T08:36:54.174Z,1005.92
2016-09-08T08:37:54.289Z,1005.92
2016-09-08T08:38:54.259Z,1005.87
2016-09-08T08:39:54.203Z,1005.83
2016-09-08T08:40:54.263Z,1005.77
2016-09-08T08:41:54.306Z,1005.6
2016-09-08T08:42:54.233Z,1005.37
2016-09-08T08:43:54.240Z,1005.13
2016-09-08T08:44:54.301Z,1005.15
2016-09-08T08:45:54.270Z,1005.11
2016-09-08T08:46:54.295Z,1005.1
2016-09-08T08:47:54.328Z,1005.12
2016-09-08T08:48:54.348Z,1005.1
2016-09-08T08:49:54.297Z,1005.08
2016-09-08T08:50:54.387Z,1005.07
2016-09-08T08:51:54.316Z,1005.08
2016-09-08T08:52:54.411Z,1005.09
2016-09-08T08:53:54.335Z,1005.08
2016-09-08T08:54:54.425Z,1005.1
2016-09-08T08:55:54.352Z,1005.09
2016-09-08T08:56:54.360Z,1005.11
2016-09-08T08:57:54.381Z,1005.1
2016-09-08T08:58:54.378Z,1005.07
2016-09-08T08:59:55.003Z,1005.06
2016-09-08T09:00:54.410Z,1005.03
2016-09-08T09:01:54.417Z,1005.05
2016-09-08T09:02:54.466Z,1005.05
2016-09-08T09:03:54.489Z,1005.02
2016-09-08T09:04:54.510Z,1005.04
2016-09-08T09:05:54.439Z,1005.03
2016-09-08T09:06:54.510Z,1005.09
2016-09-08T09:07:54.500Z,1005.06
2016-09-08T09:08:54.481Z,1005.11
2016-09-08T09:09:54.534Z,1005.13
2016-09-08T09:10:54.535Z,1005.11
2016-09-08T09:11:54.586Z,1005.11
2016-09-08T09:12:54.552Z,1005.13
2016-09-08T09:13:54.578Z,1005.13
2016-09-08T09:14:54.603Z,1005.07
2016-09-08T09:15:54.526Z,1005.05
2016-09-08T09:16:54.619Z,1005.06
2016-09-08T09:17:54.598Z,1005.06
2016-09-08T09:18:54.754Z,1005.07
2016-09-08T09:19:54.563Z,1005.14
2016-09-08T09:20:54.571Z,1005.06
2016-09-08T09:21:54.690Z,1005.1
2016-09-08T09:22:54.662Z,1005.12
2016-09-08T09:23:54.647Z,1005.09
2016-09-08T09:24:54.606Z,1005.06
2016-09-08T09:25:54.642Z,1005.09
2016-09-08T09:26:54.630Z,1005.13
2016-09-08T09:27:54.707Z,1005.11
2016-09-08T09:28:54.702Z,1005.09
2016-09-08T09:29:54.701Z,1005.09
2016-09-08T09:30:54.659Z,1005.06
2016-09-08T09:31:54.671Z,1005.06
2016-09-08T09:32:54.688Z,1005.09
2016-09-08T09:33:54.763Z,1005.07
2016-09-08T09:34:54.747Z,1005.08
2016-09-08T09:35:54.752Z,1005.06
2016-09-08T09:36:54.748Z,1005.06
2016-09-08T09:37:54.726Z,1005.08
2016-09-08T09:38:54.811Z,1005.09
2016-09-08T09:39:54.736Z,1005.1
2016-09-08T09:40:54.797Z,1005.09
2016-09-08T09:41:54.751Z,1005.1
2016-09-08T09:42:54.762Z,1005.09
2016-09-08T09:43:54.850Z,1005.09
2016-09-08T09:44:54.779Z,1005.11
2016-09-08T09:45:54.790Z,1005.09
2016-09-08T09:46:54.845Z,1005.09
2016-09-08T09:47:54.906Z,1005.06
2016-09-08T09:48:54.813Z,1005.03
2016-09-08T09:49:54.869Z,1005.02
2016-09-08T09:50:54.829Z,1004.96
2016-09-08T09:51:54.839Z,1004.95
2016-09-08T09:52:54.869Z,1004.96
2016-09-08T09:53:54.855Z,1005.03
2016-09-08T09:54:54.930Z,1004.97
2016-09-08T09:55:54.927Z,1004.99
2016-09-08T09:56:54.929Z,1004.97
2016-09-08T09:57:55.385Z,1004.96
2016-09-08T09:58:54.961Z,1004.91
2016-09-08T09:59:54.956Z,1004.92
2016-09-08T10:00:55.000Z,1004.93
2016-09-08T10:01:54.923Z,1004.92
2016-09-08T10:02:55.007Z,1004.85
2016-09-08T10:03:55.013Z,1004.91
2016-09-08T10:04:55.135Z,1004.89
2016-09-08T10:05:55.027Z,1004.9
2016-09-08T10:06:55.041Z,1004.9
2016-09-08T10:07:55.046Z,1004.9
2016-09-08T10:08:54.984Z,1004.94
2016-09-08T10:09:55.082Z,1004.92
2016-09-08T10:10:55.018Z,1004.92
2016-09-08T10:11:55.009Z,1004.94
2016-09-08T10:12:55.093Z,1004.89
2016-09-08T10:13:55.024Z,1004.91
2016-09-08T10:14:55.031Z,1004.9
2016-09-08T10:15:55.131Z,1004.88
2016-09-08T10:16:55.049Z,1004.89
2016-09-08T10:17:55.088Z,1004.89
2016-09-08T10:18:55.063Z,1004.91
2016-09-08T10:19:55.074Z,1004.85
2016-09-08T10:20:55.080Z,1004.92
2016-09-08T10:21:55.703Z,1004.86
2016-09-08T10:22:55.179Z,1004.93
2016-09-08T10:23:55.121Z,1004.94
2016-09-08T10:24:55.164Z,1004.89
2016-09-08T10:25:55.153Z,1004.87
2016-09-08T10:26:56.182Z,1004.85
2016-09-08T10:27:55.231Z,1004.78
2016-09-08T10:28:55.238Z,1004.87
2016-09-08T10:29:55.205Z,1004.87
2016-09-08T10:30:55.222Z,1004.86
2016-09-08T10:31:55.230Z,1004.86
2016-09-08T10:32:55.179Z,1004.88
2016-09-08T10:33:55.243Z,1004.9
2016-09-08T10:34:55.196Z,1004.88
2016-09-08T10:35:55.232Z,1004.88
2016-09-08T10:36:55.246Z,1004.84
2016-09-08T10:37:55.221Z,1004.84
2016-09-08T10:38:55.285Z,1004.8
2016-09-08T10:39:55.296Z,1004.78
2016-09-08T10:40:55.335Z,1004.81
2016-09-08T10:41:55.256Z,1004.77
2016-09-08T10:42:55.345Z,1004.78
2016-09-08T10:43:55.344Z,1004.82
2016-09-08T10:44:55.281Z,1004.76
2016-09-08T10:45:55.340Z,1004.83
2016-09-08T10:46:55.370Z,1004.75
2016-09-08T10:47:55.371Z,1004.8
2016-09-08T10:48:55.381Z,1004.8
2016-09-08T10:49:55.362Z,1004.82
2016-09-08T10:50:55.350Z,1004.79
2016-09-08T10:51:55.342Z,1004.83
2016-09-08T10:52:55.409Z,1004.86
2016-09-08T10:53:55.382Z,1004.8
2016-09-08T10:54:55.764Z,1004.84
2016-09-08T10:55:55.443Z,1004.83
2016-09-08T10:56:55.463Z,1004.91
2016-09-08T10:57:55.389Z,1004.91
2016-09-08T10:58:55.457Z,1004.89
2016-09-08T10:59:55.456Z,1004.9
2016-09-08T11:00:55.498Z,1004.9
2016-09-08T11:01:55.500Z,1004.85
2016-09-08T11:02:55.480Z,1004.88
2016-09-08T11:03:55.506Z,1004.86
2016-09-08T11:04:55.501Z,1004.78
2016-09-08T11:05:55.505Z,1004.82
2016-09-08T11:06:55.512Z,1004.81
2016-09-08T11:07:55.473Z,1004.77
2016-09-08T11:08:55.532Z,1004.74
2016-09-08T11:09:55.588Z,1004.72
2016-09-08T11:10:55.567Z,1004.78
2016-09-08T11:11:55.592Z,1004.78
2016-09-08T11:12:55.564Z,1004.77
2016-09-08T11:13:55.616Z,1004.81
2016-09-08T11:14:55.614Z,1004.77
2016-09-08T11:15:55.560Z,1004.73
2016-09-08T11:16:55.616Z,1004.74
2016-09-08T11:17:55.556Z,1004.73
2016-09-08T11:18:55.640Z,1004.78
2016-09-08T11:19:55.573Z,1004.76
2016-09-08T11:20:55.579Z,1004.82
2016-09-08T11:21:55.665Z,1004.81
2016-09-08T11:22:55.666Z,1004.78
2016-09-08T11:23:55.626Z,1004.76
2016-09-08T11:24:56.214Z,1004.78
2016-09-08T11:25:55.701Z,1004.78
2016-09-08T11:26:55.644Z,1004.8
2016-09-08T11:27:56.241Z,1004.82
2016-09-08T11:28:55.681Z,1004.76
2016-09-08T11:29:55.717Z,1004.77
2016-09-08T11:30:55.666Z,1004.74
2016-09-08T11:31:55.711Z,1004.74
2016-09-08T11:32:55.681Z,1004.75
2016-09-08T11:33:55.748Z,1004.74
2016-09-08T11:34:55.734Z,1004.81
2016-09-08T11:35:55.779Z,1004.82
2016-09-08T11:36:55.803Z,1004.72
2016-09-08T11:37:55.793Z,1004.79
2016-09-08T11:38:55.815Z,1004.74
2016-09-08T11:39:55.768Z,1004.73
2016-09-08T11:40:55.748Z,1004.8
2016-09-08T11:41:55.756Z,1004.82
2016-09-08T11:42:55.829Z,1004.84
2016-09-08T11:43:55.851Z,1004.87
2016-09-08T11:44:55.857Z,1004.9
2016-09-08T11:45:56.760Z,1004.91
2016-09-08T11:46:55.889Z,1004.84
2016-09-08T11:47:55.806Z,1004.79
2016-09-08T11:48:55.814Z,1004.74
2016-09-08T11:49:55.822Z,1004.75
2016-09-08T11:50:55.873Z,1004.74
2016-09-08T11:51:55.842Z,1004.8
2016-09-08T11:52:55.922Z,1004.79
2016-09-08T11:53:55.894Z,1004.78
2016-09-08T11:54:55.954Z,1004.74
2016-09-08T11:55:55.871Z,1004.78
2016-09-08T11:56:55.966Z,1004.82
2016-09-08T11:57:55.918Z,1004.77
2016-09-08T11:58:55.976Z,1004.8
2016-09-08T11:59:55.964Z,1004.8
2016-09-08T12:00:55.912Z,1004.81
2016-09-08T12:01:55.922Z,1004.8
2016-09-08T12:02:56.036Z,1004.81
2016-09-08T12:03:55.939Z,1004.81
2016-09-08T12:04:55.946Z,1004.91
2016-09-08T12:05:55.953Z,1004.87
2016-09-08T12:06:55.963Z,1004.86
2016-09-08T12:07:56.020Z,1004.88
2016-09-08T12:08:55.979Z,1004.83